Flight Track Log - Related Links

Times and Time Zones

All times are in EDT time to prevent confusion due to time zone crossing. See the UAL4236 flight status page for this flight to view local times or setup timezone preferences in your user account.

Time Position Orientation Groundspeed Altitude Reporting Facility
EDT Latitude Longitude Course Direction KTS MPH feet Rate Location/Type
Thu 12:16:00 PM 31.7933 -106.2978 98° East 193 222 6,200  Level Albuquerque Center
Thu 12:17:00 PM 31.7611 -105.9961 96° East  Level Estimated
Thu 12:17:02 PM 31.7756 -106.2181 105° East 253 291 7,700  Level Albuquerque Center
Thu 12:18:00 PM 31.7432 -105.8699 99° East  Level FlightAware Approximate
Thu 12:18:04 PM 31.7564 -106.1319 105° East 270 311 10,000  Level Albuquerque Center
Thu 12:19:00 PM 31.7241 -105.7354 100° East  Level FlightAware Approximate
Thu 12:19:06 PM 31.7458 -106.0122 96° East 312 359 11,200  Level Albuquerque Center
Thu 12:20:00 PM 31.7099 -105.6086 96° East  Level FlightAware Approximate
Thu 12:20:08 PM 31.7336 -105.8967 97° East 356 410 12,100  Level Albuquerque Center
Thu 12:21:10 PM 31.7197 -105.7769 98° East 370 426 13,400 1,258 Climbing Albuquerque Center
Thu 12:22:12 PM 31.7081 -105.6531 96° East 380 437 14,700 1,268 Climbing Albuquerque Center
Thu 12:23:13 PM 31.6942 -105.5264 97° East 389 448 16,000 1,317 Climbing Albuquerque Center
Thu 12:24:15 PM 31.6808 -105.4000 97° East 390 449 17,400 1,452 Climbing Albuquerque Center
Thu 12:25:17 PM 31.6642 -105.2464 97° East 393 452 19,000 1,500 Climbing Albuquerque Center
Thu 12:26:19 PM 31.6492 -105.1161 98° East 400 460 20,500 1,452 Climbing Albuquerque Center
Thu 12:27:21 PM 31.6356 -104.9844 97° East 403 464 22,000 1,452 Climbing Albuquerque Center
Thu 12:28:23 PM 31.6206 -104.8503 97° East 411 473 23,500 1,452 Climbing Albuquerque Center
Thu 12:29:25 PM 31.6061 -104.7158 97° East 414 476 25,000 1,452 Climbing Albuquerque Center
Thu 12:30:27 PM 31.5906 -104.5794 98° East 418 481 26,500 1,306 Climbing Albuquerque Center
Thu 12:31:29 PM 31.5750 -104.4458 98° East 415 478 27,700 1,210 Climbing Albuquerque Center
Thu 12:32:31 PM 31.5594 -104.3097 98° East 419 482 29,000 1,306 Climbing Albuquerque Center
Thu 12:33:33 PM 31.5394 -104.1458 98° East 422 486 30,400 1,258 Climbing Albuquerque Center
Thu 12:34:35 PM 31.5247 -104.0064 97° East 429 494 31,600 1,161 Climbing Albuquerque Center
Thu 12:35:37 PM 31.5069 -103.8658 98° East 435 501 32,800 871 Climbing Albuquerque Center
Thu 12:36:39 PM 31.4883 -103.7125 98° East 449 517 33,400 968 Climbing Albuquerque Center
Thu 12:37:41 PM 31.4711 -103.5650 98° East 458 527 34,800 774 Climbing Albuquerque Center
Thu 12:38:43 PM 31.4494 -103.4178 100° East 458 527 35,000 97 Climbing Albuquerque Center
Thu 12:39:45 PM 31.4278 -103.2614 99° East 472 543 35,000  Level Albuquerque Center
Thu 12:40:47 PM 31.4039 -103.0622 98° East 497 572 35,000  Level Albuquerque Center
Thu 12:41:49 PM 31.3833 -102.8939 98° East 513 590 35,000  Level Albuquerque Center
Thu 12:42:51 PM 31.3628 -102.7289 98° East 516 594 35,000 -48 Level Albuquerque Center
Thu 12:43:53 PM 31.3419 -102.5644 98° East 514 592 34,900  Descending Albuquerque Center
Thu 12:44:55 PM 31.3203 -102.3972 99° East 532 612 35,000 48 Climbing Albuquerque Center
Thu 12:45:57 PM 31.2992 -102.2347 99° East 516 594 35,000  Level Albuquerque Center
Thu 12:46:59 PM 31.2731 -102.0356 99° East 517 595 35,000  Level Albuquerque Center
Thu 12:48:01 PM 31.2519 -101.8822 99° East 517 595 35,000  Level Albuquerque Center
Thu 12:49:03 PM 31.2300 -101.7178 99° East 515 593 35,000  Level Albuquerque Center
Thu 12:49:42 PM 31.2125 -101.5856 99° East 517 595 35,000  Level Houston Center
Thu 12:50:44 PM 31.1886 -101.4203 100° East 516 594 35,000  Level Houston Center
Thu 12:51:46 PM 31.1672 -101.2608 99° East 518 596 35,000  Level Houston Center
Thu 12:52:48 PM 31.1439 -101.0939 99° East 521 600 35,000  Level Houston Center
Thu 12:53:50 PM 31.1214 -100.9272 99° East 521 600 35,000  Level Houston Center
Thu 12:54:53 PM 31.0925 -100.7281 100° East 520 598 35,000  Level Houston Center
Thu 12:55:55 PM 31.0689 -100.5619 99° East 520 598 35,000  Level Houston Center
Thu 12:56:57 PM 31.0442 -100.3961 100° East 520 598 35,000  Level Houston Center
Thu 12:57:59 PM 31.0200 -100.2278 99° East 519 597 35,000  Level Houston Center
Thu 12:59:01 PM 30.9944 -100.0636 100° East 521 600 35,000  Level Houston Center
Thu 01:00:03 PM 30.9694 -99.8983 100° East 518 596 35,000  Level Houston Center
Thu 01:01:05 PM 30.9383 -99.6989 100° East 520 598 35,000  Level Houston Center
Thu 01:02:08 PM 30.9136 -99.5336 100° East 519 597 35,000  Level Houston Center
Thu 01:03:10 PM 30.8878 -99.3683 100° East 518 596 35,000  Level Houston Center
Thu 01:04:12 PM 30.8622 -99.2028 100° East 519 597 35,000  Level Houston Center
Thu 01:05:14 PM 30.8325 -99.0142 100° East 520 598 35,000  Level Houston Center
Thu 01:06:16 PM 30.8069 -98.8481 100° East 518 596 35,000  Level Houston Center
Thu 01:07:18 PM 30.7969 -98.6783 94° East 521 600 35,000 -242 Level Houston Center
Thu 01:08:20 PM 30.8025 -98.5086 88° East 520 598 34,500 -768 Descending Houston Center
Thu 01:09:23 PM 30.8047 -98.3403 89° East 518 596 33,400 -1,540 Descending Houston Center
Thu 01:11:27 PM 30.8106 -98.0164 89° East 495 570 29,700 -1,419 Descending Houston Center
Thu 01:12:29 PM 30.8131 -97.8286 89° East 495 570 29,000 -339 Descending Houston Center
Thu 01:13:31 PM 30.8147 -97.6667 89° East 498 573 29,000  Level Houston Center
Thu 01:14:33 PM 30.8169 -97.5039 89° East 501 577 29,000  Level Houston Center
Thu 01:15:35 PM 30.8178 -97.3422 90° East 502 578 29,000  Level Houston Center
Thu 01:16:38 PM 30.8078 -97.1817 94° East 507 583 29,000  Level Houston Center
Thu 01:17:40 PM 30.7614 -97.0019 107° East 497 572 29,000 -290 Level Houston Center
Thu 01:18:42 PM 30.7183 -96.8458 108° East 501 577 28,400 -1,452 Descending Houston Center
Thu 01:19:44 PM 30.6786 -96.6919 107° East 498 573 26,000 -2,371 Descending Houston Center
Thu 01:20:46 PM 30.6392 -96.5433 107° East 482 555 23,500 -2,553 Descending Houston Center
Thu 01:21:18 PM 30.6147 -96.4578 108° East 445 512 22,000 -2,679 Descending Houston Center
Thu 01:21:42 PM 30.6000 -96.4039 108° East 435 501 21,000 -2,541 Descending Houston Center
Thu 01:22:43 PM 30.5636 -96.2697 107° East 427 491 18,400 -2,702 Descending Houston Center
Thu 01:23:53 PM 30.5258 -96.1256 107° East 408 470 15,100 -3,141 Descending Houston Center
Thu 01:24:51 PM 30.4931 -96.0086 108° East 396 456 11,700 -2,708 Descending Houston Center
Thu 01:25:46 PM 30.4656 -95.9075 107° East 363 418 10,000 -1,179 Descending Houston Center
Thu 01:26:48 PM 30.4225 -95.8253 121° Southeast 271 312 9,400 -976 Descending Houston Center
Thu 01:27:49 PM 30.3450 -95.8272 181° South 273 314 8,000 -689 Descending Houston Center
Thu 01:28:50 PM 30.2719 -95.8308 182° South 265 305 8,000 49 Level Houston Center
Thu 01:29:51 PM 30.1953 -95.8181 172° South 283 326 8,100  Climbing Houston Center
Thu 01:30:06 PM 30.1833 -95.8089 146° Southeast 288 331 8,000 -390 Descending Houston Center
Thu 01:31:08 PM 30.1186 -95.7639 149° Southeast 274 315 7,600 -953 Descending Houston Center
Thu 01:31:53 PM 30.0692 -95.7217 144° Southeast 253 291 6,300 -1,548 Descending Houston Center
Thu 01:32:10 PM 30.0664 -95.7122 109° East 258 297 6,000 -1,164 Descending Houston Center
Thu 01:33:00 PM 30.0356 -95.6508 120° Southeast 232 267 5,000 -1,027 Descending Houston Center
Thu 01:34:01 PM 30.0078 -95.5961 120° Southeast 180 207 4,100 -934 Descending Houston Center
Thu 01:35:02 PM 29.9931 -95.5497 110° East 158 182 3,100 -984 Descending Houston Center

Login

Don't have an account? Register now (free) for customized features, flight alerts, and more!